Latest Weather Observations for Hobart Airport

IDT60801

Issued at 4:21 pm EST Monday 27 May 2019 (issued every 10 minutes, with the page automatically refreshed every 10 minutes)

About weather observations | Map of weather stations | Latest weather observations for TAS | Other Formats
Station Details ID: 094008 Name: HOBART AIRPORT Lat: -42.83 Lon: 147.50 Height: 4.0 m
Data from the previous 72 hours. | See also: Recent months at Hobart Airport
Date/Time
EST
Temp
°C
App
Temp
°C
Dew
Point
°C
Rel
Hum
%
Delta-T
°C
Wind Press
QNH
hPa
Press
MSL
hPa
Rain since
9am
mm
Dir  Spd
km/h
Gust
km/h
Spd
kts
Gust
kts
27/04:00pm 10.0 3.1 2.3 59 3.3 WSW 28 37 15 20 998.2 998.2 0.0
27/03:30pm 10.4 4.2 2.0 56 3.6 SW 24 37 13 20 997.4 997.4 0.0
27/03:11pm 11.5 5.3 -0.2 44 4.8 W 22 37 12 20 996.9 997.0 0.0
27/03:00pm 12.5 7.6 -0.3 41 5.3 W 15 20 8 11 996.6 996.7 0.0
27/02:30pm 12.0 6.2 0.2 44 4.9 WNW 20 26 11 14 996.2 996.3 0.0
27/02:00pm 12.4 6.6 -0.1 42 5.2 WNW 20 30 11 16 995.7 995.8 0.0
27/01:30pm 12.1 5.8 -0.9 40 5.2 W 22 32 12 17 995.5 995.6 0.0
27/01:00pm 11.4 5.6 -0.3 44 4.8 WNW 20 30 11 16 995.6 995.7 0.0
27/12:30pm 11.0 5.8 0.0 46 4.5 WNW 17 26 9 14 995.7 995.8 0.0
27/12:00pm 11.2 5.4 0.0 46 4.6 WNW 20 28 11 15 995.9 996.0 0.0
27/11:30am 10.7 5.9 -0.1 47 4.4 NW 15 22 8 12 996.1 996.2 0.0
27/11:00am 10.4 5.5 -0.2 48 4.3 NW 15 20 8 11 996.1 996.2 0.0
27/10:30am 9.4 4.0 1.2 56 3.4 NNW 19 28 10 15 995.9 996.0 0.0
27/10:00am 9.5 3.5 1.1 56 3.5 NW 22 28 12 15 995.8 995.9 0.0
27/09:30am 8.7 3.3 1.2 59 3.1 NW 19 26 10 14 995.7 995.8 0.0
27/09:00am 8.2 3.2 1.1 61 2.9 NNW 17 26 9 14 995.3 995.4 0.0
27/08:30am 7.7 2.7 1.1 63 2.7 NNW 17 22 9 12 995.0 995.1 0.0
27/08:00am 6.8 2.0 0.2 63 2.6 WNW 15 22 8 12 994.8 994.9 0.0
27/07:30am 6.6 -0.3 0.0 63 2.6 WNW 26 32 14 17 994.0 994.1 0.0
27/07:00am 6.7 1.8 -0.2 61 2.7 NNW 15 22 8 12 993.4 993.5 0.0
27/06:30am 5.8 1.0 -0.1 66 2.3 WSW 15 19 8 10 993.9 994.0 0.0
27/06:00am 7.6 1.4 0.0 58 3.0 NNW 22 32 12 17 993.4 993.5 0.0
27/05:30am 7.8 1.2 -0.3 56 3.2 WNW 24 32 13 17 993.6 993.7 0.0
27/05:00am 8.0 -0.1 -0.4 55 3.3 NW 32 46 17 25 993.1 993.2 0.0
27/04:30am 7.8 1.6 -0.3 56 3.2 NW 22 33 12 18 993.3 993.4 0.0
27/04:00am 8.0 0.6 -0.4 55 3.3 NNW 28 39 15 21 993.5 993.6 0.0
27/03:30am 7.8 1.6 -0.6 55 3.3 NNW 22 33 12 18 993.4 993.5 0.0
27/03:00am 7.3 2.8 -0.4 58 3.0 NNW 13 19 7 10 993.9 994.0 0.0
27/02:30am 7.7 2.6 0.5 60 2.9 NNW 17 26 9 14 993.9 994.0 0.0
27/02:00am 7.9 1.0 0.1 58 3.1 NW 26 33 14 18 993.8 993.9 0.0
27/01:30am 7.7 0.5 0.8 61 2.8 NW 28 32 15 17 993.7 993.8 0.0
27/01:00am 8.2 2.2 1.1 61 2.9 NW 22 32 12 17 993.8 993.9 0.0
27/12:30am 8.4 2.5 1.4 61 2.9 NW 22 28 12 15 994.4 994.5 0.0
27/12:00am 8.9 3.0 1.4 59 3.1 NW 22 33 12 18 994.7 994.8 0.0
 
Date/Time
EST
Temp
°C
App
Temp
°C
Dew
Point
°C
Rel
Hum
%
Delta-T
°C
Wind Press
QNH
hPa
Press
MSL
hPa
Rain since
9am
mm
Dir  Spd
km/h
Gust
km/h
Spd
kts
Gust
kts
26/11:30pm 9.2 2.2 1.8 60 3.1 NW 28 35 15 19 994.7 994.8 0.0
26/11:00pm 9.3 3.1 2.3 61 3.0 NW 24 32 13 17 994.4 994.5 0.0
26/10:30pm 9.3 2.5 3.1 65 2.7 NW 28 35 15 19 994.6 994.7 0.0
26/10:00pm 9.8 3.3 2.6 61 3.1 NW 26 35 14 19 994.6 994.7 0.0
26/09:30pm 9.3 3.3 3.6 67 2.5 NW 24 32 13 17 995.1 995.2 0.0
26/09:00pm 9.3 4.8 4.4 71 2.2 N 17 22 9 12 994.5 994.6 0.0
26/08:30pm 9.9 4.7 3.8 66 2.7 NNW 20 32 11 17 995.0 995.1 0.0
26/08:00pm 10.1 4.6 4.1 66 2.7 NNW 22 33 12 18 995.1 995.2 0.0
26/07:30pm 10.4 4.6 4.4 66 2.7 NNW 24 33 13 18 996.2 996.3 0.0
26/07:00pm 10.4 5.0 4.7 68 2.6 NNW 22 30 12 16 996.3 996.4 0.0
26/06:30pm 10.6 4.4 4.1 64 2.9 WNW 26 33 14 18 996.6 996.7 0.0
26/06:00pm 11.3 7.1 4.0 61 3.3 WNW 15 30 8 16 996.4 996.5 0.0
26/05:30pm 11.4 7.7 4.6 63 3.1 NNW 13 24 7 13 996.4 996.5 0.0
26/05:00pm 11.1 8.3 5.0 66 2.8 NE 9 13 5 7 996.1 996.2 0.0
26/04:30pm 11.1 8.8 5.5 68 2.6 NNE 7 11 4 6 996.1 996.2 0.0
26/04:00pm 11.1 9.0 6.5 73 2.2 N 7 11 4 6 996.6 996.7 0.0
26/03:30pm 11.7 8.5 5.0 63 3.1 NW 11 17 6 9 997.1 997.2 0.0
26/03:00pm 12.5 6.2 3.6 54 4.0 NW 26 37 14 20 997.7 997.7 0.0
26/02:30pm 13.8 8.2 1.4 43 5.3 NW 20 28 11 15 997.6 997.6 0.0
26/02:00pm 14.4 8.5 -0.7 35 6.3 NNW 20 28 11 15 997.8 997.8 0.0
26/01:30pm 14.4 7.9 0.3 38 6.0 NNW 24 37 13 20 998.2 998.2 0.0
26/01:11pm 14.3 6.2 -0.5 36 6.1 NNW 32 54 17 29 998.6 998.6 0.0
26/01:00pm 14.1 6.7 -0.5 36 6.1 NW 28 37 15 20 998.8 998.8 0.0
26/12:30pm 14.0 6.4 0.7 40 5.7 NNW 30 43 16 23 999.4 999.4 0.0
26/12:10pm 13.9 6.7 0.9 41 5.5 NNW 28 46 15 25 999.6 999.6 0.0
26/12:00pm 13.2 5.1 0.7 42 5.3 NNW 33 44 18 24 999.7 999.7 0.0
26/11:33am 13.2 6.1 1.4 44 5.1 NNW 28 48 15 26 1000.1 1000.1 0.0
26/11:30am 13.2 6.9 1.4 44 5.1 NNW 24 41 13 22 1000.1 1000.1 0.0
26/11:00am 13.4 6.2 1.0 43 5.3 NW 28 37 15 20 1000.7 1000.7 0.0
26/10:30am 13.0 7.2 2.3 48 4.7 NW 22 30 12 16 1001.3 1001.3 0.0
26/10:00am 12.4 5.5 2.3 50 4.4 NW 28 35 15 19 1001.7 1001.7 0.0
26/09:30am 11.8 5.7 2.7 53 4.0 NW 24 32 13 17 1001.9 1001.9 0.0
26/09:00am 11.3 4.8 2.6 55 3.8 NW 26 33 14 18 1002.2 1002.2 0.0
26/08:30am 10.7 4.6 2.6 57 3.5 NNW 24 33 13 18 1001.9 1001.9 0.0
26/08:00am 10.3 4.5 2.4 58 3.4 NW 22 33 12 18 1001.6 1001.6 0.0
26/07:30am 9.7 4.3 2.7 61 3.0 NW 20 28 11 15 1001.5 1001.5 0.0
26/07:00am 10.0 3.5 2.6 60 3.2 NW 26 35 14 19 1001.4 1001.4 0.0
26/06:30am 10.1 5.0 3.0 61 3.1 NNW 19 28 10 15 1001.2 1001.2 0.0
26/06:00am 10.1 5.8 3.0 61 3.1 NNW 15 24 8 13 1001.1 1001.1 0.0
26/05:30am 10.6 5.2 2.5 57 3.5 NNW 20 32 11 17 1000.7 1000.7 0.0
26/05:00am 10.3 5.7 1.8 55 3.6 NNW 15 24 8 13 1000.7 1000.7 0.0
26/04:30am 10.2 5.7 2.0 57 3.5 NNW 15 26 8 14 1001.0 1001.0 0.0
26/04:00am 10.4 4.9 1.9 55 3.6 NNW 20 32 11 17 1000.8 1000.8 0.0
26/03:30am 10.6 5.6 1.6 53 3.8 NNW 17 28 9 15 1001.0 1001.0 0.0
26/03:00am 10.6 5.2 2.2 56 3.6 NNW 20 30 11 16 1001.0 1001.0 0.0
26/02:30am 11.0 4.5 2.5 56 3.7 NW 26 35 14 19 1001.2 1001.2 0.0
26/02:00am 11.0 5.2 2.4 55 3.7 NW 22 32 12 17 1001.5 1001.5 0.0
26/01:30am 11.0 5.8 2.2 54 3.8 NW 19 26 10 14 1001.4 1001.4 0.0
26/01:00am 10.5 5.8 2.9 59 3.3 NNW 17 28 9 15 1001.8 1001.8 0.0
26/12:30am 10.8 6.8 2.7 57 3.5 NW 13 17 7 9 1002.2 1002.2 0.0
26/12:00am 11.1 5.9 2.3 54 3.8 NW 19 24 10 13 1002.0 1002.0 0.0
 
Date/Time
EST
Temp
°C
App
Temp
°C
Dew
Point
°C
Rel
Hum
%
Delta-T
°C
Wind Press
QNH
hPa
Press
MSL
hPa
Rain since
9am
mm
Dir  Spd
km/h
Gust
km/h
Spd
kts
Gust
kts
25/11:30pm 11.1 5.8 2.9 57 3.6 NW 20 30 11 16 1002.3 1002.3 0.0
25/11:00pm 11.3 5.2 2.8 56 3.7 NW 24 32 13 17 1002.3 1002.3 0.0
25/10:30pm 11.7 6.6 2.8 54 3.9 NW 19 24 10 13 1002.6 1002.6 0.0
25/10:00pm 11.6 6.4 2.7 54 3.9 NW 19 22 10 12 1002.7 1002.7 0.0
25/09:30pm 12.0 7.3 3.2 55 3.9 NNW 17 28 9 15 1002.8 1002.8 0.0
25/09:00pm 10.5 6.6 3.5 62 3.1 NNW 13 15 7 8 1002.9 1002.9 0.0
25/08:30pm 11.8 7.6 3.8 58 3.6 NW 15 20 8 11 1002.8 1002.8 0.0
25/08:00pm 11.9 8.0 3.6 57 3.7 NNW 13 17 7 9 1002.8 1002.8 0.0
25/07:30pm 12.5 7.3 3.3 53 4.1 NNW 20 30 11 16 1002.7 1002.7 0.0
25/07:00pm 13.1 7.8 3.0 50 4.5 NNW 20 33 11 18 1002.7 1002.7 0.0
25/06:30pm 12.7 7.6 3.3 52 4.2 NNW 19 30 10 16 1002.6 1002.6 0.0
25/06:00pm 11.9 8.0 3.4 56 3.8 NNW 13 24 7 13 1002.3 1002.3 0.0
25/05:30pm 13.6 9.6 3.1 49 4.7 NNW 13 19 7 10 1002.6 1002.6 0.0
25/05:00pm 14.1 9.4 3.0 47 5.0 NNW 17 30 9 16 1002.3 1002.3 0.0
25/04:30pm 14.6 9.3 3.1 46 5.2 NNW 20 33 11 18 1002.1 1002.1 0.0
25/04:00pm 15.2 8.6 1.9 40 5.9 NW 26 39 14 21 1001.9 1001.9 0.0
25/03:30pm 15.3 9.7 1.4 39 6.1 NW 20 37 11 20 1001.9 1001.9 0.0
25/03:00pm 15.3 8.2 1.4 39 6.1 NW 28 39 15 21 1002.2 1002.2 0.0
25/02:42pm 15.7 7.3 1.4 38 6.3 NW 35 54 19 29 1002.2 1002.2 0.0
25/02:30pm 15.8 7.3 0.6 35 6.6 NW 35 48 19 26 1002.1 1002.1 0.0
25/02:00pm 15.5 7.3 0.4 35 6.5 NW 33 43 18 23 1002.5 1002.5 0.0
25/01:32pm 16.1 7.6 1.1 36 6.6 NW 35 54 19 29 1002.5 1002.5 0.0
25/01:30pm 15.9 7.4 1.1 36 6.5 NW 35 50 19 27 1002.4 1002.4 0.0
25/01:00pm 16.1 8.2 2.1 39 6.3 NW 33 50 18 27 1002.6 1002.6 0.0
25/12:32pm 16.3 7.0 0.7 34 6.8 NW 39 59 21 32 1002.7 1002.7 0.0
25/12:30pm 16.4 7.1 0.6 34 6.9 NW 39 54 21 29 1002.7 1002.7 0.0
25/12:13pm 16.5 7.2 0.7 34 6.9 NW 39 56 21 30 1002.7 1002.7 0.0
25/12:00pm 16.1 9.2 2.7 40 6.1 NW 28 35 15 19 1003.1 1003.1 0.0
25/11:33am 15.9 8.2 2.4 40 6.1 NW 32 50 17 27 1003.6 1003.6 0.0
25/11:30am 15.7 7.4 2.4 40 6.0 NW 35 50 19 27 1003.7 1003.7 0.0
25/11:19am 15.8 8.1 2.5 40 6.0 NW 32 50 17 27 1003.7 1003.7 0.0
25/11:00am 15.2 7.6 3.1 44 5.5 NW 32 46 17 25 1004.1 1004.1 0.0
25/10:50am 15.5 8.0 3.3 44 5.6 NW 32 52 17 28 1004.2 1004.2 0.0
25/10:30am 15.3 7.2 3.5 45 5.4 NW 35 48 19 26 1004.3 1004.3 0.0
25/10:00am 15.7 10.2 3.8 45 5.5 NNW 22 33 12 18 1004.1 1004.1 0.0
25/09:30am 15.3 10.5 4.7 49 5.0 NNW 19 26 10 14 1004.3 1004.3 0.0
25/09:00am 15.4 8.3 3.4 44 5.5 NW 30 37 16 20 1004.4 1004.4 0.0
25/08:30am 13.9 9.1 5.4 56 4.0 N 20 28 11 15 1004.2 1004.2 0.0
25/08:00am 12.9 8.5 6.4 64 3.1 NNW 19 28 10 15 1003.9 1003.9 0.0
25/07:30am 11.0 7.2 5.6 69 2.5 N 15 19 8 10 1003.8 1003.8 0.0
25/07:00am 11.5 7.7 6.0 69 2.6 N 15 26 8 14 1003.8 1003.8 0.0
25/06:30am 12.6 9.1 5.3 61 3.4 N 13 19 7 10 1003.9 1003.9 0.0
25/06:00am 11.3 8.8 6.4 72 2.3 N 9 13 5 7 1004.0 1004.0 0.0
25/05:30am 12.0 9.1 6.6 69 2.6 NW 11 13 6 7 1004.1 1004.1 0.0
25/05:00am 12.6 9.9 5.8 63 3.2 N 9 15 5 8 1004.3 1004.3 0.0
25/04:30am 12.2 9.5 5.8 65 3.0 NNW 9 13 5 7 1004.4 1004.4 0.0
25/04:00am 13.2 9.6 4.8 56 3.9 NNW 13 17 7 9 1004.5 1004.5 0.0
25/03:30am 13.4 9.5 5.3 58 3.8 NNW 15 19 8 10 1004.7 1004.7 0.0
25/03:00am 13.6 8.6 4.8 55 4.1 NNW 20 28 11 15 1004.7 1004.7 0.0
25/02:30am 13.6 8.4 5.6 58 3.8 NNW 22 32 12 17 1005.0 1005.0 0.0
25/02:00am 14.1 8.9 5.4 56 4.1 NW 22 30 12 16 1004.9 1004.9 0.0
25/01:30am 14.2 8.7 5.8 57 4.0 NW 24 32 13 17 1004.9 1004.9 0.0
25/01:00am 12.7 8.8 6.9 68 2.8 NW 17 24 9 13 1004.6 1004.6 0.0
25/12:30am 11.4 8.4 7.9 79 1.7 NW 13 15 7 8 1004.8 1004.8 0.0
25/12:00am 10.2 8.1 8.1 87 1.0 WNW 9 13 5 7 1004.8 1004.8 0.0
 
Date/Time
EST
Temp
°C
App
Temp
°C
Dew
Point
°C
Rel
Hum
%
Delta-T
°C
Wind Press
QNH
hPa
Press
MSL
hPa
Rain since
9am
mm
Dir  Spd
km/h
Gust
km/h
Spd
kts
Gust
kts
24/11:30pm 10.6 8.7 9.0 90 0.8 W 9 11 5 6 1004.6 1004.6 0.0
24/11:00pm 10.7 9.3 8.9 89 0.9 SSE 6 7 3 4 1004.4 1004.4 0.0
24/10:30pm 11.8 10.7 8.4 80 1.7 W 4 15 2 8 1004.4 1004.4 0.0
24/10:00pm 14.1 10.6 8.8 70 2.7 NW 17 22 9 12 1004.7 1004.7 0.0
24/09:30pm 13.7 10.6 9.0 73 2.4 NW 15 19 8 10 1004.5 1004.5 0.0
24/09:00pm 13.3 10.6 9.0 75 2.2 NW 13 17 7 9 1004.6 1004.6 0.0
24/08:30pm 14.3 10.2 8.6 68 2.9 N 20 30 11 16 1004.5 1004.5 0.0
24/08:00pm 14.2 10.2 8.9 70 2.7 N 20 30 11 16 1005.1 1005.1 0.0
24/07:30pm 13.5 10.2 9.4 76 2.1 N 17 24 9 13 1005.3 1005.3 0.0
24/07:00pm 13.6 10.2 9.3 75 2.2 NNW 17 28 9 15 1005.9 1005.9 0.0
24/06:30pm 13.5 9.7 9.2 75 2.2 N 19 26 10 14 1006.3 1006.3 0.0
24/06:00pm 13.8 9.8 8.9 72 2.5 N 20 32 11 17 1006.5 1006.5 0.0
24/05:30pm 13.9 9.9 9.0 72 2.5 NNW 20 35 11 19 1006.9 1006.9 0.0
24/05:00pm 14.4 9.9 8.7 68 2.9 N 22 30 12 16 1007.4 1007.4 0.0
24/04:30pm 15.1 11.5 8.4 64 3.4 NNW 17 26 9 14 1007.8 1007.8 0.0

Other formats

Comma delimited format used in spreadsheet applications
http://www.bom.gov.au/fwo/IDT60801/IDT60801.94975.axf

JavaScript Object Notation format (JSON) in row-major order
http://www.bom.gov.au/fwo/IDT60801/IDT60801.94975.json

Data quality

Most of these data are generated automatically and are frequently updated. Quality checks on data are not normally performed. It is possible for incorrect values to appear. Refer to information at About Latest Weather Observations and please check the disclaimer before using these data.